Weather at Gladwin Zettel Memorial Airport

Public forecast

Using degrees Fahrenheit for public forecast. Weather courtesy of forecast.io.

Closest aviation weather report (METAR) to Gladwin Zettel Memorial Airport

Closest report is Jack Barstow Airport, 20.7 nm (38.4 km) SSE. Retrieved 2020/09/19 14:35 UTC (22 minutes ago):

KIKW 191435Z AUTO 00000KT 10SM CLR 11/03 A3044 RMK AO2 T01130029

Closest aviation forecast (TAF) to Gladwin Zettel Memorial Airport

Closest forecast is MBS International Airport, 31.4 nm (58.1 km) SSE. Retrieved 2020/09/19 12:22 UTC (3 hours ago):

TAF KMBS 191120Z 1912/2012 06005KT P6SM FEW250 FM191800 13006KT P6SM SCT250 FM200200 11003KT P6SM SKC